Time;durP1;ratioP1;P1;durP2;ratioP2;P2;SDS_P1;SDS_P2;PMS_P1;PMS_P2;Temp;Humidity;BMP_temperature;BMP_pressure;BME280_temperature;BME280_humidity;BME280_pressure;Samples;Min_cycle;Max_cycle;Signal;HPM_P1;HPM_P2
2021/03/08 00:00:26;;;;;;;19.83;11.90;;;;;;;1.69;100.00;96214.41;1027612;28;20014;-58
2021/03/08 00:00:56;;;;;;;19.17;12.38;;;;;;;1.70;100.00;96213.44;1027750;28;20018;-59
2021/03/08 00:01:27;;;;;;;20.73;11.50;;;;;;;1.68;100.00;96215.34;1031782;28;20026;-58
2021/03/08 00:01:58;;;;;;;22.77;12.65;;;;;;;1.69;100.00;96217.03;1027737;28;20037;-55
2021/03/08 00:02:29;;;;;;;21.92;11.88;;;;;;;1.66;100.00;96219.88;1027455;28;20015;-58
2021/03/08 00:02:59;;;;;;;17.95;11.88;;;;;;;1.57;100.00;96211.84;1023694;28;20031;-57
2021/03/08 00:03:30;;;;;;;18.40;11.45;;;;;;;1.62;100.00;96222.81;1027570;28;20038;-56
2021/03/08 00:04:01;;;;;;;19.55;12.20;;;;;;;1.63;100.00;96222.72;1023810;29;20106;-58
2021/03/08 00:04:33;;;;;;;20.23;12.25;;;;;;;1.60;100.00;96220.34;1027644;28;20103;-53
2021/03/08 00:05:05;;;;;;;21.77;12.13;;;;;;;1.56;100.00;96229.34;1031743;28;20018;-58
2021/03/08 00:05:35;;;;;;;20.58;11.40;;;;;;;1.54;100.00;96226.03;1031840;28;20379;-58
2021/03/08 00:06:06;;;;;;;20.55;11.80;;;;;;;1.51;100.00;96226.22;1019823;29;20059;-57
2021/03/08 00:06:37;;;;;;;18.33;11.65;;;;;;;1.51;100.00;96226.22;1023738;29;20114;-59
2021/03/08 00:07:08;;;;;;;17.67;11.05;;;;;;;1.46;100.00;96233.59;1031766;28;20046;-58
2021/03/08 00:07:39;;;;;;;24.05;13.63;;;;;;;1.41;100.00;96231.34;1019766;28;20027;-58
2021/03/08 00:08:10;;;;;;;20.35;12.55;;;;;;;1.39;100.00;96232.38;1019824;29;20027;-56
2021/03/08 00:08:41;;;;;;;23.27;12.82;;;;;;;1.33;100.00;96230.22;1027604;28;20469;-58
2021/03/08 00:09:12;;;;;;;20.05;12.00;;;;;;;1.37;100.00;96239.50;1027735;28;20109;-59
2021/03/08 00:09:42;;;;;;;21.80;12.50;;;;;;;1.35;100.00;96237.00;1023689;29;20019;-56
2021/03/08 00:10:14;;;;;;;19.20;11.73;;;;;;;1.34;100.00;96234.50;1023682;29;20110;-59
2021/03/08 00:10:45;;;;;;;19.42;12.38;;;;;;;1.33;100.00;96238.06;1023710;28;20038;-58
2021/03/08 00:11:15;;;;;;;18.13;11.68;;;;;;;1.29;100.00;96233.06;1027805;28;20027;-58
2021/03/08 00:11:46;;;;;;;18.50;11.50;;;;;;;1.30;100.00;96234.72;1023736;28;20019;-56
2021/03/08 00:12:17;;;;;;;21.27;12.68;;;;;;;1.23;100.00;96238.72;1027583;28;20023;-58
2021/03/08 00:12:48;;;;;;;21.90;13.23;;;;;;;1.24;100.00;96232.56;1027632;28;20019;-57
2021/03/08 00:13:18;;;;;;;22.50;12.18;;;;;;;1.26;100.00;96235.88;1024973;29;20067;-58
2021/03/08 00:13:49;;;;;;;21.02;12.55;;;;;;;1.26;100.00;96237.69;1028802;28;20015;-59
2021/03/08 00:14:20;;;;;;;21.25;12.27;;;;;;;1.26;100.00;96248.97;1025211;28;20027;-58
2021/03/08 00:14:51;;;;;;;20.27;12.88;;;;;;;1.22;100.00;96237.06;1025272;29;20031;-57
2021/03/08 00:15:22;;;;;;;21.20;12.30;;;;;;;1.25;100.00;96242.06;1025223;28;20020;-57
2021/03/08 00:15:52;;;;;;;21.27;12.93;;;;;;;1.25;100.00;96234.19;1025617;29;20030;-57
2021/03/08 00:16:23;;;;;;;20.13;12.20;;;;;;;1.22;100.00;96239.69;1025191;29;20016;-59
2021/03/08 00:16:54;;;;;;;20.42;11.73;;;;;;;1.23;100.00;96233.47;1017862;29;20027;-61
2021/03/08 00:17:24;;;;;;;21.83;12.02;;;;;;;1.25;100.00;96233.38;1025565;29;20023;-57
2021/03/08 00:17:55;;;;;;;20.67;12.85;;;;;;;1.23;100.00;96233.47;1025628;28;20030;-58
2021/03/08 00:18:26;;;;;;;20.45;12.25;;;;;;;1.23;100.00;96238.72;1029137;28;20019;-58
2021/03/08 00:18:56;;;;;;;18.38;12.00;;;;;;;1.23;100.00;96233.47;1032136;28;20030;-58
2021/03/08 00:19:27;;;;;;;22.27;12.63;;;;;;;1.17;100.00;96231.34;1023662;28;20025;-58
2021/03/08 00:19:58;;;;;;;19.95;11.98;;;;;;;1.19;100.00;96226.81;1027654;28;20460;-57
2021/03/08 00:20:28;;;;;;;22.15;13.05;;;;;;;1.16;100.00;96223.59;1023681;28;20015;-58
2021/03/08 00:20:59;;;;;;;21.80;12.52;;;;;;;1.13;100.00;96222.88;1023708;28;20020;-58
2021/03/08 00:21:30;;;;;;;18.05;11.68;;;;;;;1.17;100.00;96225.25;1019687;29;20020;-57
2021/03/08 00:22:01;;;;;;;19.80;12.00;;;;;;;1.14;100.00;96223.69;1019803;29;20024;-58
2021/03/08 00:22:31;;;;;;;20.67;12.20;;;;;;;1.15;100.00;96220.16;1023564;29;20030;-57
2021/03/08 00:23:02;;;;;;;19.73;11.90;;;;;;;1.15;100.00;96219.28;1023635;29;20019;-59
2021/03/08 00:23:33;;;;;;;20.40;12.07;;;;;;;1.13;100.00;96217.66;1023377;29;20031;-58
2021/03/08 00:24:04;;;;;;;19.38;11.88;;;;;;;1.15;100.00;96217.53;1019650;29;20023;-57
2021/03/08 00:24:34;;;;;;;22.50;12.25;;;;;;;1.19;100.00;96215.53;1019751;29;20075;-58
2021/03/08 00:25:08;;;;;;;20.92;12.63;;;;;;;1.12;100.00;96220.38;1019824;29;20091;-57
2021/03/08 00:25:39;;;;;;;22.13;12.88;;;;;;;1.12;100.00;96210.72;1019542;29;20019;-57
2021/03/08 00:26:10;;;;;;;20.48;12.68;;;;;;;1.11;100.00;96213.44;1023707;29;20094;-58
2021/03/08 00:26:41;;;;;;;21.73;13.00;;;;;;;1.07;100.00;96209.41;1031653;28;20021;-58
2021/03/08 00:27:12;;;;;;;19.88;12.18;;;;;;;1.07;100.00;96204.16;1031537;28;20440;-59
2021/03/08 00:27:42;;;;;;;22.75;12.90;;;;;;;1.07;100.00;96209.41;1031578;28;20037;-58
2021/03/08 00:28:13;;;;;;;23.08;13.48;;;;;;;1.01;100.00;96208.06;1031680;28;20465;-58
2021/03/08 00:28:44;;;;;;;19.63;12.05;;;;;;;1.02;100.00;96207.09;1023593;29;20018;-58
2021/03/08 00:29:14;;;;;;;22.48;13.50;;;;;;;0.98;100.00;96203.06;1023660;29;20109;-58
2021/03/08 00:29:45;;;;;;;20.10;12.18;;;;;;;1.00;100.00;96206.38;1023502;29;20020;-58
2021/03/08 00:30:16;;;;;;;20.83;13.07;;;;;;;0.98;100.00;96207.47;1019753;29;20450;-59
2021/03/08 00:30:47;;;;;;;21.42;12.75;;;;;;;0.99;100.00;96209.09;1023706;28;20023;-58
2021/03/08 00:31:17;;;;;;;21.60;12.63;;;;;;;0.98;100.00;96204.84;1023649;28;20070;-58
2021/03/08 00:31:48;;;;;;;19.63;12.70;;;;;;;0.91;100.00;96213.13;1019546;29;20425;-59
2021/03/08 00:32:19;;;;;;;21.80;12.02;;;;;;;0.90;100.00;96216.66;1023510;29;20023;-58
2021/03/08 00:32:49;;;;;;;21.90;13.13;;;;;;;0.91;100.00;96218.34;1031535;28;20031;-58
2021/03/08 00:33:20;;;;;;;21.75;12.23;;;;;;;0.92;100.00;96214.78;1019666;28;20024;-60
2021/03/08 00:33:51;;;;;;;19.75;12.13;;;;;;;0.91;100.00;96213.13;1015426;29;20790;-58
2021/03/08 00:34:22;;;;;;;21.85;13.00;;;;;;;0.90;100.00;96214.03;1023605;28;20061;-58
2021/03/08 00:34:52;;;;;;;20.27;12.77;;;;;;;0.92;100.00;96216.56;1031541;28;20030;-58
2021/03/08 00:35:23;;;;;;;23.23;13.38;;;;;;;0.91;100.00;96212.28;1023664;29;20023;-58
2021/03/08 00:35:54;;;;;;;18.33;12.18;;;;;;;0.90;100.00;96216.66;1028524;28;20033;-59
2021/03/08 00:36:25;;;;;;;22.50;12.77;;;;;;;0.89;100.00;96216.78;1019728;29;20020;-58
2021/03/08 00:36:55;;;;;;;22.38;13.27;;;;;;;0.89;100.00;96219.41;1027630;28;20033;-57
2021/03/08 00:37:30;;;;;;;18.02;12.15;;;;;;;0.88;100.00;96221.16;1027618;28;20054;-59
2021/03/08 00:38:01;;;;;;;18.05;11.63;;;;;;;0.89;100.00;96222.03;1019593;29;20814;-58
2021/03/08 00:38:32;;;;;;;20.30;12.60;;;;;;;0.89;100.00;96219.41;1023606;28;20023;-59
2021/03/08 00:39:03;;;;;;;20.10;12.27;;;;;;;0.87;100.00;96223.88;1023715;28;20066;-58
2021/03/08 00:39:34;;;;;;;17.55;11.52;;;;;;;0.86;100.00;96220.44;1023785;28;20015;-60
2021/03/08 00:40:07;;;;;;;20.92;12.38;;;;;;;0.84;100.00;96221.53;1027437;28;20516;-57
2021/03/08 00:40:37;;;;;;;21.42;13.40;;;;;;;0.85;100.00;96217.94;1027601;28;20038;-57
2021/03/08 00:41:08;;;;;;;21.60;12.32;;;;;;;0.84;100.00;96217.13;1027548;28;20030;-58
2021/03/08 00:41:39;;;;;;;21.67;12.18;;;;;;;0.82;100.00;96224.25;1023644;28;20071;-58
2021/03/08 00:42:10;;;;;;;21.13;12.15;;;;;;;0.82;100.00;96219.00;1015690;29;20028;-57
2021/03/08 00:42:41;;;;;;;23.00;12.85;;;;;;;0.84;100.00;96218.91;1027739;28;20023;-60
2021/03/08 00:43:12;;;;;;;20.10;11.82;;;;;;;0.84;100.00;96227.56;1019679;28;20157;-59
2021/03/08 00:43:42;;;;;;;20.15;12.13;;;;;;;0.83;100.00;96223.28;1027456;28;20182;-59
2021/03/08 00:44:13;;;;;;;21.02;12.27;;;;;;;0.83;100.00;96228.50;1023539;29;20078;-59
2021/03/08 00:44:44;;;;;;;23.00;13.82;;;;;;;0.83;100.00;96231.13;1035784;28;20026;-57
2021/03/08 00:45:17;;;;;;;19.98;12.18;;;;;;;0.82;100.00;96228.59;1027730;28;20018;-58
2021/03/08 00:45:48;;;;;;;22.85;13.48;;;;;;;0.80;100.00;96228.75;1031638;28;20488;-55
2021/03/08 00:46:18;;;;;;;20.20;12.60;;;;;;;0.79;100.00;96224.44;1027539;28;20015;-60
2021/03/08 00:46:49;;;;;;;22.25;13.25;;;;;;;0.78;100.00;96222.75;1023611;29;20086;-54
2021/03/08 00:47:21;;;;;;;21.63;13.07;;;;;;;0.78;100.00;96228.00;1019657;29;20114;-58
2021/03/08 00:47:52;;;;;;;19.48;12.00;;;;;;;0.78;100.00;96225.38;1023577;29;20105;-56
2021/03/08 00:48:23;;;;;;;21.08;12.80;;;;;;;0.79;100.00;96226.22;1023492;29;20027;-57
2021/03/08 00:48:53;;;;;;;21.90;13.65;;;;;;;0.78;100.00;96221.94;1023648;28;20114;-57
2021/03/08 00:49:24;;;;;;;20.27;13.20;;;;;;;0.72;100.00;96225.81;1023733;28;20034;-58
2021/03/08 00:49:55;;;;;;;20.95;13.30;;;;;;;0.69;100.00;96234.69;1023570;29;20027;-58
2021/03/08 00:50:27;;;;;;;20.63;12.05;;;;;;;0.69;100.00;96228.66;1027402;28;20566;-57
2021/03/08 00:50:58;;;;;;;24.95;13.15;;;;;;;0.59;100.00;96217.16;1023497;29;20062;-57
2021/03/08 00:51:29;;;;;;;23.20;13.02;;;;;;;0.65;100.00;96224.59;1023565;28;20038;-59
2021/03/08 00:52:00;;;;;;;20.00;12.52;;;;;;;0.66;100.00;96231.47;1027511;28;20022;-57
2021/03/08 00:52:30;;;;;;;22.15;12.82;;;;;;;0.65;100.00;96222.81;1027344;28;20027;-57
2021/03/08 00:53:01;;;;;;;24.85;13.35;;;;;;;0.61;100.00;96226.59;1023599;29;20489;-58
2021/03/08 00:53:32;;;;;;;20.08;11.80;;;;;;;0.60;100.00;96224.09;1027408;28;20018;-56
2021/03/08 00:54:03;;;;;;;20.67;13.25;;;;;;;0.60;100.00;96222.28;1023537;29;20092;-57
2021/03/08 00:54:34;;;;;;;23.27;12.70;;;;;;;0.59;100.00;96227.63;1019556;29;20020;-54
2021/03/08 00:55:06;;;;;;;20.33;12.65;;;;;;;0.57;100.00;96222.50;1027511;28;20025;-58
2021/03/08 00:55:37;;;;;;;21.95;13.13;;;;;;;0.54;100.00;96226.19;1027640;28;20074;-59
2021/03/08 00:56:08;;;;;;;20.63;12.05;;;;;;;0.54;100.00;96227.94;1027577;28;20592;-58
2021/03/08 00:56:39;;;;;;;20.90;12.88;;;;;;;0.54;100.00;96225.31;1023508;29;20023;-57
2021/03/08 00:57:10;;;;;;;22.40;13.02;;;;;;;0.50;100.00;96221.25;1027491;28;20030;-57
2021/03/08 00:57:41;;;;;;;21.25;12.07;;;;;;;0.49;100.00;96220.44;1027585;28;20042;-57
2021/03/08 00:58:12;;;;;;;21.30;13.45;;;;;;;0.48;100.00;96221.38;1027564;28;20078;-58
2021/03/08 00:58:42;;;;;;;23.52;13.25;;;;;;;0.46;100.00;96223.25;1027572;28;20069;-57
2021/03/08 00:59:13;;;;;;;21.48;12.82;;;;;;;0.45;100.00;96224.19;1031556;28;20129;-58
2021/03/08 00:59:44;;;;;;;24.38;13.75;;;;;;;0.46;100.00;96223.25;1031595;28;20049;-57
2021/03/08 01:00:17;;;;;;;22.05;12.75;;;;;;;0.44;100.00;96221.72;1027495;28;20540;-56
2021/03/08 01:00:47;;;;;;;23.80;13.30;;;;;;;0.42;100.00;96213.97;1019579;29;20086;-59
2021/03/08 01:01:18;;;;;;;21.45;12.20;;;;;;;0.16;100.00;96180.03;1019645;29;20048;-57
2021/03/08 01:01:49;;;;;;;22.42;13.02;;;;;;;0.41;100.00;96216.69;1023627;28;20023;-56
2021/03/08 01:02:20;;;;;;;22.02;12.85;;;;;;;0.39;100.00;96214.19;1027484;28;20034;-58
2021/03/08 01:02:52;;;;;;;22.17;13.25;;;;;;;0.40;100.00;96213.25;1027534;28;20069;-56
2021/03/08 01:03:23;;;;;;;20.80;13.20;;;;;;;0.36;100.00;96211.78;1027548;28;20464;-58
2021/03/08 01:03:53;;;;;;;23.67;12.52;;;;;;;0.35;100.00;96213.56;1031542;28;20102;-57
2021/03/08 01:04:24;;;;;;;23.15;13.60;;;;;;;0.17;100.00;96215.69;1023607;28;20027;-58
2021/03/08 01:04:55;;;;;;;24.40;13.23;;;;;;;0.20;100.00;96221.63;1023463;28;20485;-59
2021/03/08 01:05:26;;;;;;;24.13;13.50;;;;;;;0.16;100.00;96221.81;1027577;28;20488;-59
2021/03/08 01:05:57;;;;;;;21.88;13.57;;;;;;;0.17;100.00;96217.44;1027553;28;20030;-58
2021/03/08 01:06:28;;;;;;;22.33;13.15;;;;;;;0.14;100.00;96222.84;1039743;28;20041;-59
2021/03/08 01:06:59;;;;;;;22.02;12.93;;;;;;;0.14;100.00;96217.63;1039628;28;20032;-60
2021/03/08 01:07:29;;;;;;;22.73;13.45;;;;;;;0.13;100.00;96222.03;1027594;28;20109;-60
2021/03/08 01:08:00;;;;;;;21.70;13.05;;;;;;;0.11;100.00;96218.69;1031609;28;20428;-59
2021/03/08 01:08:31;;;;;;;23.13;13.10;;;;;;;0.10;100.00;96221.41;1023583;28;20023;-59
2021/03/08 01:09:04;;;;;;;25.38;14.10;;;;;;;0.10;100.00;96222.22;1015733;29;20387;-59
2021/03/08 01:09:35;;;;;;;22.48;14.10;;;;;;;0.08;100.00;96223.28;1031529;28;20120;-58
2021/03/08 01:10:09;;;;;;;22.55;13.68;;;;;;;0.05;100.00;96219.09;1019667;29;20079;-59
2021/03/08 01:10:40;;;;;;;23.48;13.48;;;;;;;0.03;100.00;96215.75;1027503;28;20025;-61
2021/03/08 01:11:10;;;;;;;23.75;14.40;;;;;;;-0.02;100.00;96208.25;1023508;28;20015;-59
2021/03/08 01:11:42;;;;;;;21.73;13.52;;;;;;;0.02;100.00;96213.25;1023622;29;20024;-58
2021/03/08 01:12:13;;;;;;;24.50;13.40;;;;;;;-0.01;100.00;96209.09;1023464;28;20499;-59
2021/03/08 01:12:44;;;;;;;21.42;12.60;;;;;;;-0.04;100.00;96215.34;1019608;29;20014;-57
2021/03/08 01:13:15;;;;;;;21.65;13.38;;;;;;;-0.07;100.00;96212.09;1023459;29;20015;-57
2021/03/08 01:13:46;;;;;;;24.90;13.43;;;;;;;-0.13;100.00;96209.91;1027398;28;20015;-60
2021/03/08 01:14:16;;;;;;;25.75;14.20;;;;;;;-0.18;100.00;96209.41;1031662;28;20006;-59
2021/03/08 01:14:47;;;;;;;23.45;13.60;;;;;;;-0.21;100.00;96210.41;1023674;28;20066;-59
2021/03/08 01:15:18;;;;;;;21.50;13.85;;;;;;;-0.22;100.00;96214.81;1027470;28;20015;-59
2021/03/08 01:15:51;;;;;;;23.30;13.93;;;;;;;-0.18;100.00;96217.22;1019635;28;20019;-59
2021/03/08 01:16:21;;;;;;;23.90;14.00;;;;;;;-0.21;100.00;96215.63;1023670;28;20011;-59
2021/03/08 01:16:53;;;;;;;25.15;14.68;;;;;;;-0.24;100.00;96214.09;1027576;28;20071;-57
2021/03/08 01:17:24;;;;;;;28.23;14.77;;;;;;;-0.26;100.00;96215.13;1027536;28;20015;-58
2021/03/08 01:17:54;;;;;;;24.48;14.52;;;;;;;-0.34;100.00;96206.97;1027507;28;20504;-58
2021/03/08 01:18:25;;;;;;;23.60;14.02;;;;;;;-0.29;100.00;96210.13;1023664;28;20470;-58
2021/03/08 01:18:56;;;;;;;24.83;14.65;;;;;;;-0.28;100.00;96202.19;1019616;28;20541;-57
2021/03/08 01:19:27;;;;;;;21.88;13.82;;;;;;;-0.26;100.00;96208.13;1023547;29;20015;-57
2021/03/08 01:19:58;;;;;;;22.83;13.40;;;;;;;-0.30;100.00;96209.25;1027509;28;20086;-58
2021/03/08 01:20:29;;;;;;;26.50;14.40;;;;;;;-0.29;100.00;96212.72;1023594;29;20019;-59
2021/03/08 01:20:59;;;;;;;23.27;14.27;;;;;;;-0.28;100.00;96210.03;1019636;29;20095;-55
2021/03/08 01:21:30;;;;;;;24.55;14.63;;;;;;;-0.29;100.00;96208.34;1031585;28;20145;-60
2021/03/08 01:22:01;;;;;;;28.67;15.13;;;;;;;-0.32;100.00;96205.94;1023528;28;20024;-57
2021/03/08 01:22:32;;;;;;;22.50;13.48;;;;;;;-0.32;100.00;96203.31;1019489;28;20138;-59
2021/03/08 01:23:02;;;;;;;21.80;13.80;;;;;;;-0.33;100.00;96206.03;1023526;29;20477;-59
2021/03/08 01:23:33;;;;;;;26.05;14.25;;;;;;;-0.41;100.00;96212.59;1031374;28;20011;-58
2021/03/08 01:24:05;;;;;;;28.00;15.07;;;;;;;-0.45;100.00;96211.13;1031376;28;20065;-58
2021/03/08 01:24:36;;;;;;;26.00;14.98;;;;;;;-0.45;100.00;96210.31;1031619;28;20046;-58
2021/03/08 01:25:10;;;;;;;29.08;15.20;;;;;;;-0.48;100.00;96215.72;1023548;28;20406;-59
2021/03/08 01:25:41;;;;;;;25.10;14.10;;;;;;;-0.53;100.00;96213.41;1023529;28;20054;-57
2021/03/08 01:26:12;;;;;;;25.10;14.60;;;;;;;-0.53;100.00;96210.81;1023496;29;20452;-59
2021/03/08 01:26:42;;;;;;;28.15;15.52;;;;;;;-0.51;100.00;96210.69;1031557;28;20523;-58
2021/03/08 01:27:13;;;;;;;25.20;14.73;;;;;;;-0.53;100.00;96209.97;1021232;28;20113;-59
2021/03/08 01:27:44;;;;;;;22.90;14.32;;;;;;;-0.53;100.00;96208.19;1035497;28;20033;-59
2021/03/08 01:28:14;;;;;;;24.40;15.52;;;;;;;-0.51;100.00;96202.88;1023509;29;20018;-59
2021/03/08 01:28:46;;;;;;;26.92;14.50;;;;;;;-0.52;100.00;96204.66;1027655;28;20520;-57
2021/03/08 01:29:17;;;;;;;26.33;14.35;;;;;;;-0.53;100.00;96205.59;1019624;28;20126;-59
2021/03/08 01:29:48;;;;;;;26.05;13.98;;;;;;;-0.52;100.00;96206.41;1019513;29;20118;-58
2021/03/08 01:30:21;;;;;;;26.85;15.70;;;;;;;-0.55;100.00;96204.84;1020114;28;20024;-60
2021/03/08 01:30:52;;;;;;;30.00;14.75;;;;;;;-0.84;100.00;96162.44;1028129;28;20093;-57
2021/03/08 01:31:23;;;;;;;26.95;13.98;;;;;;;-0.63;100.00;96200.16;1028344;28;20026;-59
2021/03/08 01:31:53;;;;;;;26.98;14.65;;;;;;;-0.62;100.00;96209.63;1024227;29;20027;-58
2021/03/08 01:32:24;;;;;;;24.88;13.60;;;;;;;-0.64;100.00;96201.06;1028122;28;20026;-58
2021/03/08 01:32:55;;;;;;;25.05;14.63;;;;;;;-0.65;100.00;96204.59;1028316;28;20043;-56
2021/03/08 01:33:26;;;;;;;23.73;13.70;;;;;;;-0.67;100.00;96206.50;1024395;29;20034;-58
2021/03/08 01:33:56;;;;;;;26.00;14.88;;;;;;;-0.67;100.00;96209.09;1024129;29;20110;-59
2021/03/08 01:34:27;;;;;;;27.77;14.55;;;;;;;-0.68;100.00;96209.19;1016415;29;20020;-58
2021/03/08 01:34:58;;;;;;;27.02;15.18;;;;;;;-0.70;100.00;96206.69;1024286;29;20030;-58
2021/03/08 01:35:29;;;;;;;26.48;15.18;;;;;;;-0.72;100.00;96205.94;1020479;29;20020;-60
2021/03/08 01:36:00;;;;;;;26.63;14.65;;;;;;;-0.72;100.00;96208.56;1024255;29;20122;-58
2021/03/08 01:36:30;;;;;;;29.23;15.20;;;;;;;-0.82;100.00;96199.66;1024248;29;20043;-58
2021/03/08 01:37:01;;;;;;;28.02;14.88;;;;;;;-0.82;100.00;96200.53;1028337;28;20019;-56
2021/03/08 01:37:32;;;;;;;26.65;14.52;;;;;;;-0.89;100.00;96203.59;1020298;29;20023;-58
2021/03/08 01:38:03;;;;;;;25.30;14.80;;;;;;;-0.82;100.00;96197.91;1032284;28;20014;-59
2021/03/08 01:38:34;;;;;;;29.45;16.13;;;;;;;-0.83;100.00;96200.63;1024226;28;20015;-59
2021/03/08 01:39:05;;;;;;;28.30;15.00;;;;;;;-0.88;100.00;96200.91;1028217;28;20047;-58
2021/03/08 01:39:36;;;;;;;30.40;15.40;;;;;;;-0.92;100.00;96190.75;1028410;28;20034;-59
2021/03/08 01:40:09;;;;;;;25.88;15.57;;;;;;;-0.84;100.00;96198.94;1028370;28;20427;-58
2021/03/08 01:40:40;;;;;;;30.13;16.30;;;;;;;-0.84;100.00;96201.53;1028136;28;20026;-58
2021/03/08 01:41:11;;;;;;;33.15;16.73;;;;;;;-0.85;100.00;96198.09;1024254;29;20398;-60
2021/03/08 01:41:42;;;;;;;32.97;16.10;;;;;;;-0.84;100.00;96204.16;1028304;28;20015;-58
2021/03/08 01:42:13;;;;;;;27.25;15.60;;;;;;;-0.85;100.00;96200.72;1020186;29;20114;-59
2021/03/08 01:42:44;;;;;;;32.90;17.02;;;;;;;-0.84;100.00;96196.31;1024097;29;20126;-57
2021/03/08 01:43:16;;;;;;;28.27;16.38;;;;;;;-0.85;100.00;96203.31;1028193;28;20532;-60
2021/03/08 01:43:46;;;;;;;37.33;17.13;;;;;;;-0.92;100.00;96202.06;1024061;29;20011;-57
2021/03/08 01:44:17;;;;;;;27.60;16.02;;;;;;;-0.93;100.00;96199.53;1016358;29;20455;-60
2021/03/08 01:44:48;;;;;;;28.67;16.25;;;;;;;-0.95;100.00;96205.66;1024228;29;20323;-58
2021/03/08 01:45:19;;;;;;;33.05;15.45;;;;;;;-0.95;100.00;96200.47;1024265;29;20015;-60
2021/03/08 01:45:50;;;;;;;36.92;16.02;;;;;;;-0.99;100.00;96198.16;1024198;29;20026;-58
2021/03/08 01:46:21;;;;;;;27.10;15.10;;;;;;;-0.97;100.00;96204.13;1024222;28;20401;-58
2021/03/08 01:46:53;;;;;;;32.42;16.38;;;;;;;-0.97;100.00;96196.28;1024085;29;20480;-58
2021/03/08 01:47:24;;;;;;;28.52;15.77;;;;;;;-0.97;100.00;96204.94;1028221;28;20042;-58
2021/03/08 01:47:54;;;;;;;30.88;16.35;;;;;;;-1.04;100.00;96190.63;1032257;28;20018;-59
2021/03/08 01:48:26;;;;;;;27.92;15.95;;;;;;;-1.07;100.00;96187.41;1028304;28;20067;-57
2021/03/08 01:48:56;;;;;;;28.25;15.73;;;;;;;-1.02;100.00;96199.19;1020233;29;20036;-55
2021/03/08 01:49:27;;;;;;;32.75;15.75;;;;;;;-1.00;100.00;96202.53;1020267;29;20034;-61
2021/03/08 01:49:58;;;;;;;29.40;15.60;;;;;;;-1.01;100.00;96198.25;1024171;29;20445;-55
2021/03/08 01:50:39;;;;;;;28.60;15.65;;;;;;;-1.00;100.00;96199.91;1036223;28;20522;-59
2021/03/08 01:51:09;;;;;;;30.85;15.73;;;;;;;-1.01;100.00;96190.44;1032245;28;20488;-61
2021/03/08 01:51:41;;;;;;;26.65;15.85;;;;;;;-1.01;100.00;96187.84;1028248;28;20054;-59
2021/03/08 01:52:12;;;;;;;26.05;15.35;;;;;;;-0.99;100.00;96196.38;1028118;28;20018;-59
2021/03/08 01:52:43;;;;;;;26.05;15.48;;;;;;;-0.97;100.00;96189.31;1028122;28;20050;-58
2021/03/08 01:53:16;;;;;;;29.85;16.13;;;;;;;-0.97;100.00;96189.31;1024138;29;20500;-60
2021/03/08 01:53:47;;;;;;;27.75;15.82;;;;;;;-0.93;100.00;96189.94;1020068;29;20535;-58
2021/03/08 01:54:18;;;;;;;27.85;15.95;;;;;;;-0.92;100.00;96182.94;1024122;29;20166;-58
2021/03/08 01:54:49;;;;;;;26.40;14.88;;;;;;;-0.98;100.00;96171.97;1020185;29;20031;-57
2021/03/08 01:55:20;;;;;;;32.95;17.30;;;;;;;-0.87;100.00;96188.69;1028107;28;20034;-60
2021/03/08 01:55:51;;;;;;;26.25;16.35;;;;;;;-0.87;100.00;96183.47;1024221;28;20031;-58
2021/03/08 01:56:21;;;;;;;30.45;16.42;;;;;;;-0.86;100.00;96187.78;1020204;29;20027;-60
2021/03/08 01:56:52;;;;;;;28.15;15.43;;;;;;;-0.82;100.00;96187.50;1024100;29;20043;-59
2021/03/08 01:57:23;;;;;;;33.03;16.00;;;;;;;-0.82;100.00;96176.19;1016235;29;20031;-58
2021/03/08 01:57:54;;;;;;;27.48;16.27;;;;;;;-0.80;100.00;96184.75;1020281;29;20034;-59
2021/03/08 01:58:25;;;;;;;27.45;16.02;;;;;;;-0.79;100.00;96182.03;1020285;29;20068;-58
2021/03/08 01:58:55;;;;;;;28.08;16.17;;;;;;;-0.79;100.00;96186.44;1024235;29;20453;-57
2021/03/08 01:59:26;;;;;;;27.27;15.73;;;;;;;-0.75;100.00;96187.91;1032170;28;20142;-59
2021/03/08 01:59:57;;;;;;;25.90;14.93;;;;;;;-0.77;100.00;96185.41;1024240;29;20538;-58
2021/03/08 02:00:28;;;;;;;26.33;15.35;;;;;;;-0.82;100.00;96184.03;1020352;29;20023;-58
2021/03/08 02:00:59;;;;;;;27.98;15.57;;;;;;;-0.81;100.00;96183.09;1024179;28;20406;-56
2021/03/08 02:01:30;;;;;;;30.92;16.23;;;;;;;-0.83;100.00;96179.75;1020208;29;20029;-60
2021/03/08 02:02:01;;;;;;;28.83;16.33;;;;;;;-0.85;100.00;96182.47;1020281;29;20023;-58
2021/03/08 02:02:32;;;;;;;31.50;16.63;;;;;;;-0.88;100.00;96181.84;1024091;29;20596;-58
2021/03/08 02:03:03;;;;;;;28.83;15.73;;;;;;;-0.97;100.00;96171.06;1024207;28;20492;-54
2021/03/08 02:03:34;;;;;;;28.42;16.38;;;;;;;-0.87;100.00;96184.34;1023862;29;20652;-60
2021/03/08 02:04:05;;;;;;;29.70;16.60;;;;;;;-0.88;100.00;96182.66;1024103;28;20433;-58
2021/03/08 02:04:36;;;;;;;27.77;16.02;;;;;;;-0.90;100.00;96186.31;1028172;28;20067;-60
2021/03/08 02:05:08;;;;;;;29.33;16.60;;;;;;;-0.95;100.00;96182.22;1028240;28;20527;-59
2021/03/08 02:05:40;;;;;;;27.30;15.52;;;;;;;-0.99;100.00;96187.75;1032039;28;20029;-58
2021/03/08 02:06:11;;;;;;;31.92;16.27;;;;;;;-0.96;100.00;96191.00;1024128;29;20146;-58
2021/03/08 02:06:42;;;;;;;31.90;17.58;;;;;;;-0.97;100.00;96189.31;1024230;28;20086;-58
2021/03/08 02:07:13;;;;;;;30.50;16.15;;;;;;;-1.02;100.00;96186.16;1020174;29;20022;-57
2021/03/08 02:07:44;;;;;;;28.00;16.08;;;;;;;-1.02;100.00;96186.16;1028129;28;20022;-56
2021/03/08 02:08:17;;;;;;;29.48;17.35;;;;;;;-1.03;100.00;96189.72;1020234;29;20041;-60
2021/03/08 02:08:48;;;;;;;30.55;17.17;;;;;;;-1.09;100.00;96192.69;1028434;28;20481;-59
2021/03/08 02:09:19;;;;;;;33.05;17.50;;;;;;;-1.07;100.00;96190.00;1020155;29;20020;-58
2021/03/08 02:09:49;;;;;;;30.52;16.60;;;;;;;-1.12;100.00;96195.50;1020108;29;20039;-58
2021/03/08 02:10:20;;;;;;;31.00;16.55;;;;;;;-1.12;100.00;96195.50;1024068;29;20026;-61
2021/03/08 02:10:51;;;;;;;28.20;16.00;;;;;;;-1.17;100.00;96187.13;1020234;29;20039;-57
2021/03/08 02:11:22;;;;;;;32.00;17.55;;;;;;;-1.15;100.00;96190.47;1028120;28;20014;-58
2021/03/08 02:11:58;;;;;;;30.60;16.95;;;;;;;-1.15;100.00;96191.31;1028046;28;20106;-59
2021/03/08 02:12:44;;;;;;;32.20;16.90;;;;;;;-1.15;100.00;96187.88;1028092;28;20022;-59
2021/03/08 02:13:25;;;;;;;28.65;16.23;;;;;;;-1.13;100.00;96191.25;1032147;28;20015;-58
2021/03/08 02:14:13;;;;;;;32.03;15.98;;;;;;;-1.14;100.00;96181.72;1023914;28;20038;-58
2021/03/08 02:14:53;;;;;;;29.85;16.40;;;;;;;-1.15;100.00;96188.72;1028227;28;20469;-59
2021/03/08 02:15:34;;;;;;;32.58;16.73;;;;;;;-1.17;100.00;96182.78;1016360;29;20019;-58
2021/03/08 02:16:17;;;;;;;33.72;17.52;;;;;;;-1.19;100.00;96182.00;1020180;29;20031;-58
2021/03/08 02:17:07;;;;;;;29.83;15.85;;;;;;;-1.22;100.00;96182.25;1036251;28;20014;-58
2021/03/08 02:17:38;;;;;;;;;;;;;;;-1.21;100.00;96185.66;1036707;28;20256;-57
2021/03/08 02:18:21;;;;;;;29.27;15.00;;;;;;;-1.25;100.00;96177.22;1028059;28;19906;-58
2021/03/08 02:19:02;;;;;;;29.10;15.48;;;;;;;-1.26;100.00;96172.09;1028244;28;20281;-58
2021/03/08 02:19:43;;;;;;;31.88;17.02;;;;;;;-1.32;100.00;96170.72;1024103;28;20049;-58
2021/03/08 02:20:33;;;;;;;32.67;17.33;;;;;;;-1.35;100.00;96171.75;1027968;28;20019;-58
2021/03/08 02:21:23;;;;;;;31.30;16.63;;;;;;;-1.39;100.00;96157.25;1028202;28;20101;-57
2021/03/08 02:22:13;;;;;;;30.52;16.05;;;;;;;-1.28;100.00;96174.78;1031996;28;20483;-59
2021/03/08 02:23:03;;;;;;;31.02;16.25;;;;;;;-1.30;100.00;96168.03;1025412;28;20461;-58
2021/03/08 02:23:45;;;;;;;32.33;15.45;;;;;;;-1.30;100.00;96171.47;1025226;28;20438;-58
2021/03/08 02:24:42;;;;;;;26.90;15.73;;;;;;;-1.31;100.00;96172.38;1024185;28;20016;-59
2021/03/08 02:25:33;;;;;;;31.10;15.65;;;;;;;-1.35;100.00;96169.13;1020108;29;20019;-59
2021/03/08 02:26:23;;;;;;;28.75;15.68;;;;;;;-1.48;100.00;96152.63;1020152;29;20069;-58
2021/03/08 02:26:58;;;;;;;32.45;16.15;;;;;;;-1.43;100.00;96168.81;1021522;29;20024;-59